sensor_id;sensor_type;location;lat;lon;timestamp;P1;durP1;ratioP1;P2;durP2;ratioP2
9960;SDS011;5021;51.506;11.320;2023-03-23T00:00:49;2.73;;;2.13;;
9960;SDS011;5021;51.506;11.320;2023-03-23T00:03:15;2.47;;;2.03;;
9960;SDS011;5021;51.506;11.320;2023-03-23T00:05:42;4.00;;;2.00;;
9960;SDS011;5021;51.506;11.320;2023-03-23T00:08:14;2.00;;;1.80;;
9960;SDS011;5021;51.506;11.320;2023-03-23T00:10:40;2.73;;;2.00;;
9960;SDS011;5021;51.506;11.320;2023-03-23T00:13:06;2.50;;;1.93;;
9960;SDS011;5021;51.506;11.320;2023-03-23T00:15:32;2.47;;;1.90;;
9960;SDS011;5021;51.506;11.320;2023-03-23T00:18:00;2.77;;;1.77;;
9960;SDS011;5021;51.506;11.320;2023-03-23T00:20:29;2.67;;;2.00;;
9960;SDS011;5021;51.506;11.320;2023-03-23T00:23:04;1.83;;;1.73;;
9960;SDS011;5021;51.506;11.320;2023-03-23T00:25:31;1.90;;;1.57;;
9960;SDS011;5021;51.506;11.320;2023-03-23T00:27:57;1.97;;;1.77;;
9960;SDS011;5021;51.506;11.320;2023-03-23T00:30:23;1.97;;;1.77;;
9960;SDS011;5021;51.506;11.320;2023-03-23T00:32:49;2.20;;;1.90;;
9960;SDS011;5021;51.506;11.320;2023-03-23T00:35:15;4.67;;;1.97;;
9960;SDS011;5021;51.506;11.320;2023-03-23T00:37:42;2.03;;;1.57;;
9960;SDS011;5021;51.506;11.320;2023-03-23T00:40:09;2.17;;;1.67;;
9960;SDS011;5021;51.506;11.320;2023-03-23T00:42:35;1.50;;;1.40;;
9960;SDS011;5021;51.506;11.320;2023-03-23T00:45:03;2.10;;;1.90;;
9960;SDS011;5021;51.506;11.320;2023-03-23T00:47:35;2.83;;;1.80;;
9960;SDS011;5021;51.506;11.320;2023-03-23T00:50:01;2.30;;;1.90;;
9960;SDS011;5021;51.506;11.320;2023-03-23T00:52:27;2.23;;;1.83;;
9960;SDS011;5021;51.506;11.320;2023-03-23T00:54:53;1.90;;;1.70;;
9960;SDS011;5021;51.506;11.320;2023-03-23T00:57:19;3.00;;;2.07;;
9960;SDS011;5021;51.506;11.320;2023-03-23T00:59:48;2.73;;;2.00;;
9960;SDS011;5021;51.506;11.320;2023-03-23T01:02:14;2.40;;;1.77;;
9960;SDS011;5021;51.506;11.320;2023-03-23T01:04:41;2.23;;;1.90;;
9960;SDS011;5021;51.506;11.320;2023-03-23T01:07:10;2.97;;;2.00;;
9960;SDS011;5021;51.506;11.320;2023-03-23T01:09:39;3.00;;;1.80;;
9960;SDS011;5021;51.506;11.320;2023-03-23T01:12:05;2.00;;;1.80;;
9960;SDS011;5021;51.506;11.320;2023-03-23T01:14:32;2.07;;;1.80;;
9960;SDS011;5021;51.506;11.320;2023-03-23T01:16:58;2.00;;;1.80;;
9960;SDS011;5021;51.506;11.320;2023-03-23T01:19:23;2.00;;;1.60;;
9960;SDS011;5021;51.506;11.320;2023-03-23T01:21:49;2.27;;;1.60;;
9960;SDS011;5021;51.506;11.320;2023-03-23T01:24:15;1.93;;;1.73;;
9960;SDS011;5021;51.506;11.320;2023-03-23T01:26:41;2.20;;;1.60;;
9960;SDS011;5021;51.506;11.320;2023-03-23T01:29:07;1.73;;;1.63;;
9960;SDS011;5021;51.506;11.320;2023-03-23T01:31:33;3.03;;;1.70;;
9960;SDS011;5021;51.506;11.320;2023-03-23T01:34:01;2.83;;;1.70;;
9960;SDS011;5021;51.506;11.320;2023-03-23T01:36:28;1.70;;;1.50;;
9960;SDS011;5021;51.506;11.320;2023-03-23T01:38:57;2.90;;;1.70;;
9960;SDS011;5021;51.506;11.320;2023-03-23T01:41:24;2.63;;;1.73;;
9960;SDS011;5021;51.506;11.320;2023-03-23T01:43:54;1.80;;;1.60;;
9960;SDS011;5021;51.506;11.320;2023-03-23T01:46:20;2.63;;;1.60;;
9960;SDS011;5021;51.506;11.320;2023-03-23T01:48:47;2.30;;;1.83;;
9960;SDS011;5021;51.506;11.320;2023-03-23T01:51:14;2.03;;;1.50;;
9960;SDS011;5021;51.506;11.320;2023-03-23T01:53:46;2.27;;;1.83;;
9960;SDS011;5021;51.506;11.320;2023-03-23T01:56:12;2.10;;;1.53;;
9960;SDS011;5021;51.506;11.320;2023-03-23T01:58:39;1.80;;;1.60;;
9960;SDS011;5021;51.506;11.320;2023-03-23T02:01:10;1.73;;;1.40;;
9960;SDS011;5021;51.506;11.320;2023-03-23T02:03:38;2.10;;;1.90;;
9960;SDS011;5021;51.506;11.320;2023-03-23T02:06:04;2.93;;;1.60;;
9960;SDS011;5021;51.506;11.320;2023-03-23T02:08:31;2.10;;;1.40;;
9960;SDS011;5021;51.506;11.320;2023-03-23T02:10:57;2.27;;;1.60;;
9960;SDS011;5021;51.506;11.320;2023-03-23T02:13:23;2.07;;;1.63;;
9960;SDS011;5021;51.506;11.320;2023-03-23T02:23:39;2.37;;;1.57;;
9960;SDS011;5021;51.506;11.320;2023-03-23T02:26:17;1.87;;;1.40;;
9960;SDS011;5021;51.506;11.320;2023-03-23T02:31:34;2.27;;;1.40;;
9960;SDS011;5021;51.506;11.320;2023-03-23T02:34:05;2.37;;;1.80;;
9960;SDS011;5021;51.506;11.320;2023-03-23T02:36:58;1.50;;;1.30;;
9960;SDS011;5021;51.506;11.320;2023-03-23T02:39:21;2.23;;;1.47;;
9960;SDS011;5021;51.506;11.320;2023-03-23T02:41:50;2.27;;;1.70;;
9960;SDS011;5021;51.506;11.320;2023-03-23T02:44:18;1.73;;;1.50;;
9960;SDS011;5021;51.506;11.320;2023-03-23T02:46:44;3.07;;;1.67;;
9960;SDS011;5021;51.506;11.320;2023-03-23T02:49:11;1.87;;;1.67;;
9960;SDS011;5021;51.506;11.320;2023-03-23T02:51:39;1.53;;;1.43;;
9960;SDS011;5021;51.506;11.320;2023-03-23T02:54:05;4.37;;;2.00;;
9960;SDS011;5021;51.506;11.320;2023-03-23T02:56:32;3.37;;;1.60;;
9960;SDS011;5021;51.506;11.320;2023-03-23T02:58:59;2.47;;;1.40;;
9960;SDS011;5021;51.506;11.320;2023-03-23T03:03:51;2.07;;;1.83;;
9960;SDS011;5021;51.506;11.320;2023-03-23T03:06:25;1.90;;;1.70;;
9960;SDS011;5021;51.506;11.320;2023-03-23T03:08:59;2.10;;;1.70;;
9960;SDS011;5021;51.506;11.320;2023-03-23T03:11:28;2.53;;;1.63;;
9960;SDS011;5021;51.506;11.320;2023-03-23T03:13:57;2.00;;;1.63;;
9960;SDS011;5021;51.506;11.320;2023-03-23T03:16:27;2.13;;;1.50;;
9960;SDS011;5021;51.506;11.320;2023-03-23T03:19:00;1.53;;;1.43;;
9960;SDS011;5021;51.506;11.320;2023-03-23T03:21:29;2.03;;;1.50;;
9960;SDS011;5021;51.506;11.320;2023-03-23T03:23:56;2.23;;;1.40;;
9960;SDS011;5021;51.506;11.320;2023-03-23T03:26:25;1.87;;;1.40;;
9960;SDS011;5021;51.506;11.320;2023-03-23T03:28:52;2.10;;;1.50;;
9960;SDS011;5021;51.506;11.320;2023-03-23T03:31:19;2.10;;;1.50;;
9960;SDS011;5021;51.506;11.320;2023-03-23T03:33:46;2.37;;;1.60;;
9960;SDS011;5021;51.506;11.320;2023-03-23T03:36:15;2.73;;;1.40;;
9960;SDS011;5021;51.506;11.320;2023-03-23T03:38:43;2.90;;;1.80;;
9960;SDS011;5021;51.506;11.320;2023-03-23T03:41:09;1.50;;;1.40;;
9960;SDS011;5021;51.506;11.320;2023-03-23T03:43:35;2.27;;;1.70;;
9960;SDS011;5021;51.506;11.320;2023-03-23T03:46:01;1.70;;;1.60;;
9960;SDS011;5021;51.506;11.320;2023-03-23T03:48:27;1.77;;;1.60;;
9960;SDS011;5021;51.506;11.320;2023-03-23T03:50:53;2.30;;;1.80;;
9960;SDS011;5021;51.506;11.320;2023-03-23T03:53:21;1.67;;;1.50;;
9960;SDS011;5021;51.506;11.320;2023-03-23T03:55:47;2.63;;;1.57;;
9960;SDS011;5021;51.506;11.320;2023-03-23T03:58:14;2.67;;;1.57;;
9960;SDS011;5021;51.506;11.320;2023-03-23T04:00:40;2.33;;;1.60;;
9960;SDS011;5021;51.506;11.320;2023-03-23T04:03:07;2.27;;;1.70;;
9960;SDS011;5021;51.506;11.320;2023-03-23T04:05:34;2.63;;;1.70;;
9960;SDS011;5021;51.506;11.320;2023-03-23T04:08:02;2.37;;;1.60;;
9960;SDS011;5021;51.506;11.320;2023-03-23T04:10:28;2.00;;;1.60;;
9960;SDS011;5021;51.506;11.320;2023-03-23T04:12:55;1.80;;;1.50;;
9960;SDS011;5021;51.506;11.320;2023-03-23T04:15:21;2.20;;;1.70;;
9960;SDS011;5021;51.506;11.320;2023-03-23T04:17:47;2.80;;;1.80;;
9960;SDS011;5021;51.506;11.320;2023-03-23T04:20:13;2.03;;;1.53;;
9960;SDS011;5021;51.506;11.320;2023-03-23T04:22:42;2.43;;;1.80;;
9960;SDS011;5021;51.506;11.320;2023-03-23T04:25:09;2.40;;;1.70;;
9960;SDS011;5021;51.506;11.320;2023-03-23T04:27:35;2.50;;;1.80;;
9960;SDS011;5021;51.506;11.320;2023-03-23T04:30:01;3.10;;;1.90;;
9960;SDS011;5021;51.506;11.320;2023-03-23T04:32:28;2.67;;;1.67;;
9960;SDS011;5021;51.506;11.320;2023-03-23T04:34:57;4.33;;;2.00;;
9960;SDS011;5021;51.506;11.320;2023-03-23T04:37:26;1.93;;;1.53;;
9960;SDS011;5021;51.506;11.320;2023-03-23T04:39:54;2.50;;;1.70;;
9960;SDS011;5021;51.506;11.320;2023-03-23T04:42:28;1.93;;;1.70;;
9960;SDS011;5021;51.506;11.320;2023-03-23T04:44:55;1.80;;;1.70;;
9960;SDS011;5021;51.506;11.320;2023-03-23T04:47:21;1.60;;;1.50;;
9960;SDS011;5021;51.506;11.320;2023-03-23T04:49:47;1.87;;;1.70;;
9960;SDS011;5021;51.506;11.320;2023-03-23T04:52:13;1.90;;;1.70;;
9960;SDS011;5021;51.506;11.320;2023-03-23T04:54:39;2.50;;;1.63;;
9960;SDS011;5021;51.506;11.320;2023-03-23T04:57:05;4.47;;;1.90;;
9960;SDS011;5021;51.506;11.320;2023-03-23T04:59:33;2.63;;;1.80;;
9960;SDS011;5021;51.506;11.320;2023-03-23T05:01:59;1.90;;;1.60;;
9960;SDS011;5021;51.506;11.320;2023-03-23T05:04:24;2.20;;;1.60;;
9960;SDS011;5021;51.506;11.320;2023-03-23T05:06:51;2.07;;;1.87;;
9960;SDS011;5021;51.506;11.320;2023-03-23T05:09:17;1.80;;;1.67;;
9960;SDS011;5021;51.506;11.320;2023-03-23T05:11:43;3.40;;;1.87;;
9960;SDS011;5021;51.506;11.320;2023-03-23T05:14:09;1.67;;;1.57;;
9960;SDS011;5021;51.506;11.320;2023-03-23T05:16:35;1.70;;;1.60;;
9960;SDS011;5021;51.506;11.320;2023-03-23T05:19:05;2.47;;;1.77;;
9960;SDS011;5021;51.506;11.320;2023-03-23T05:21:32;1.80;;;1.70;;
9960;SDS011;5021;51.506;11.320;2023-03-23T05:23:59;2.20;;;1.60;;
9960;SDS011;5021;51.506;11.320;2023-03-23T05:26:25;2.00;;;1.80;;
9960;SDS011;5021;51.506;11.320;2023-03-23T05:28:53;2.00;;;1.80;;
9960;SDS011;5021;51.506;11.320;2023-03-23T05:31:20;1.87;;;1.70;;
9960;SDS011;5021;51.506;11.320;2023-03-23T05:33:46;2.40;;;1.87;;
9960;SDS011;5021;51.506;11.320;2023-03-23T05:36:12;2.03;;;1.70;;
9960;SDS011;5021;51.506;11.320;2023-03-23T05:38:41;1.80;;;1.70;;
9960;SDS011;5021;51.506;11.320;2023-03-23T05:41:11;3.40;;;1.87;;
9960;SDS011;5021;51.506;11.320;2023-03-23T05:43:37;3.10;;;1.80;;
9960;SDS011;5021;51.506;11.320;2023-03-23T05:46:03;2.37;;;1.70;;
9960;SDS011;5021;51.506;11.320;2023-03-23T05:48:30;1.80;;;1.63;;
9960;SDS011;5021;51.506;11.320;2023-03-23T05:50:56;3.57;;;1.77;;
9960;SDS011;5021;51.506;11.320;2023-03-23T05:53:22;2.20;;;1.70;;
9960;SDS011;5021;51.506;11.320;2023-03-23T05:55:48;3.10;;;1.77;;
9960;SDS011;5021;51.506;11.320;2023-03-23T05:58:15;1.93;;;1.40;;
9960;SDS011;5021;51.506;11.320;2023-03-23T06:00:41;2.07;;;1.70;;
9960;SDS011;5021;51.506;11.320;2023-03-23T06:03:07;2.67;;;1.67;;
9960;SDS011;5021;51.506;11.320;2023-03-23T06:05:33;1.90;;;1.70;;
9960;SDS011;5021;51.506;11.320;2023-03-23T06:07:59;2.70;;;2.07;;
9960;SDS011;5021;51.506;11.320;2023-03-23T06:10:26;3.73;;;1.90;;
9960;SDS011;5021;51.506;11.320;2023-03-23T06:12:52;2.20;;;1.83;;
9960;SDS011;5021;51.506;11.320;2023-03-23T06:15:18;3.33;;;1.87;;
9960;SDS011;5021;51.506;11.320;2023-03-23T06:17:44;3.30;;;1.77;;
9960;SDS011;5021;51.506;11.320;2023-03-23T06:20:10;2.53;;;2.13;;
9960;SDS011;5021;51.506;11.320;2023-03-23T06:22:37;3.33;;;2.10;;
9960;SDS011;5021;51.506;11.320;2023-03-23T06:25:04;3.83;;;2.20;;
9960;SDS011;5021;51.506;11.320;2023-03-23T06:27:30;3.23;;;2.13;;
9960;SDS011;5021;51.506;11.320;2023-03-23T06:29:56;3.37;;;1.97;;
9960;SDS011;5021;51.506;11.320;2023-03-23T06:32:22;2.20;;;1.60;;
9960;SDS011;5021;51.506;11.320;2023-03-23T06:34:49;2.00;;;1.80;;
9960;SDS011;5021;51.506;11.320;2023-03-23T06:37:15;2.33;;;2.10;;
9960;SDS011;5021;51.506;11.320;2023-03-23T06:39:41;2.47;;;2.00;;
9960;SDS011;5021;51.506;11.320;2023-03-23T06:42:08;5.53;;;2.20;;
9960;SDS011;5021;51.506;11.320;2023-03-23T06:44:35;2.10;;;1.90;;
9960;SDS011;5021;51.506;11.320;2023-03-23T06:47:01;2.33;;;2.10;;
9960;SDS011;5021;51.506;11.320;2023-03-23T06:49:28;2.77;;;2.13;;
9960;SDS011;5021;51.506;11.320;2023-03-23T06:51:54;2.63;;;2.10;;
9960;SDS011;5021;51.506;11.320;2023-03-23T06:54:21;2.13;;;1.93;;
9960;SDS011;5021;51.506;11.320;2023-03-23T06:56:47;2.53;;;2.00;;
9960;SDS011;5021;51.506;11.320;2023-03-23T06:59:12;3.47;;;2.20;;
9960;SDS011;5021;51.506;11.320;2023-03-23T07:01:38;3.53;;;2.10;;
9960;SDS011;5021;51.506;11.320;2023-03-23T07:04:04;2.47;;;1.80;;
9960;SDS011;5021;51.506;11.320;2023-03-23T07:06:31;2.30;;;2.03;;
9960;SDS011;5021;51.506;11.320;2023-03-23T07:08:57;2.43;;;2.20;;
9960;SDS011;5021;51.506;11.320;2023-03-23T07:11:23;2.97;;;2.00;;
9960;SDS011;5021;51.506;11.320;2023-03-23T07:13:50;2.20;;;2.00;;
9960;SDS011;5021;51.506;11.320;2023-03-23T07:16:16;2.47;;;1.90;;
9960;SDS011;5021;51.506;11.320;2023-03-23T07:18:42;2.80;;;1.90;;
9960;SDS011;5021;51.506;11.320;2023-03-23T07:21:08;2.57;;;2.00;;
9960;SDS011;5021;51.506;11.320;2023-03-23T07:23:35;3.33;;;2.10;;
9960;SDS011;5021;51.506;11.320;2023-03-23T07:26:01;1.87;;;1.60;;
9960;SDS011;5021;51.506;11.320;2023-03-23T07:28:28;2.27;;;1.87;;
9960;SDS011;5021;51.506;11.320;2023-03-23T07:30:54;2.10;;;1.83;;
9960;SDS011;5021;51.506;11.320;2023-03-23T07:33:20;2.23;;;2.03;;
9960;SDS011;5021;51.506;11.320;2023-03-23T07:35:46;2.97;;;2.10;;
9960;SDS011;5021;51.506;11.320;2023-03-23T07:38:12;2.40;;;2.00;;
9960;SDS011;5021;51.506;11.320;2023-03-23T07:40:38;3.30;;;2.13;;
9960;SDS011;5021;51.506;11.320;2023-03-23T07:43:05;2.03;;;1.87;;
9960;SDS011;5021;51.506;11.320;2023-03-23T07:45:31;1.97;;;1.80;;
9960;SDS011;5021;51.506;11.320;2023-03-23T07:47:57;3.10;;;2.10;;
9960;SDS011;5021;51.506;11.320;2023-03-23T07:50:23;3.60;;;2.00;;
9960;SDS011;5021;51.506;11.320;2023-03-23T07:52:50;2.23;;;2.03;;
9960;SDS011;5021;51.506;11.320;2023-03-23T07:55:17;2.17;;;1.90;;
9960;SDS011;5021;51.506;11.320;2023-03-23T07:57:44;2.37;;;2.10;;
9960;SDS011;5021;51.506;11.320;2023-03-23T08:00:10;2.00;;;1.80;;
9960;SDS011;5021;51.506;11.320;2023-03-23T08:02:45;2.83;;;1.90;;
9960;SDS011;5021;51.506;11.320;2023-03-23T08:05:12;2.27;;;2.07;;
9960;SDS011;5021;51.506;11.320;2023-03-23T08:07:41;3.93;;;1.93;;
9960;SDS011;5021;51.506;11.320;2023-03-23T08:10:08;3.03;;;1.70;;
9960;SDS011;5021;51.506;11.320;2023-03-23T08:12:38;2.73;;;2.13;;
9960;SDS011;5021;51.506;11.320;2023-03-23T08:15:05;4.50;;;2.13;;
9960;SDS011;5021;51.506;11.320;2023-03-23T08:17:31;3.73;;;2.00;;
9960;SDS011;5021;51.506;11.320;2023-03-23T08:19:58;2.50;;;1.90;;
9960;SDS011;5021;51.506;11.320;2023-03-23T08:22:33;2.70;;;2.10;;
9960;SDS011;5021;51.506;11.320;2023-03-23T08:25:00;3.13;;;2.30;;
9960;SDS011;5021;51.506;11.320;2023-03-23T08:27:26;2.57;;;2.03;;
9960;SDS011;5021;51.506;11.320;2023-03-23T08:29:52;2.53;;;2.10;;
9960;SDS011;5021;51.506;11.320;2023-03-23T08:32:18;3.40;;;2.47;;
9960;SDS011;5021;51.506;11.320;2023-03-23T08:34:44;4.13;;;2.57;;
9960;SDS011;5021;51.506;11.320;2023-03-23T08:37:10;2.73;;;2.30;;
9960;SDS011;5021;51.506;11.320;2023-03-23T08:39:36;3.10;;;2.50;;
9960;SDS011;5021;51.506;11.320;2023-03-23T08:42:02;3.30;;;2.37;;
9960;SDS011;5021;51.506;11.320;2023-03-23T08:44:28;3.37;;;2.30;;
9960;SDS011;5021;51.506;11.320;2023-03-23T08:46:57;2.93;;;2.30;;
9960;SDS011;5021;51.506;11.320;2023-03-23T08:49:23;3.90;;;2.33;;
9960;SDS011;5021;51.506;11.320;2023-03-23T08:51:50;2.23;;;1.90;;
9960;SDS011;5021;51.506;11.320;2023-03-23T08:54:19;3.70;;;2.20;;
9960;SDS011;5021;51.506;11.320;2023-03-23T08:56:45;2.53;;;1.97;;
9960;SDS011;5021;51.506;11.320;2023-03-23T08:59:11;4.27;;;1.90;;
9960;SDS011;5021;51.506;11.320;2023-03-23T09:01:37;2.20;;;2.00;;
9960;SDS011;5021;51.506;11.320;2023-03-23T09:04:03;2.60;;;1.80;;
9960;SDS011;5021;51.506;11.320;2023-03-23T09:06:29;2.67;;;2.00;;
9960;SDS011;5021;51.506;11.320;2023-03-23T09:08:55;2.60;;;2.10;;
9960;SDS011;5021;51.506;11.320;2023-03-23T09:11:21;2.13;;;1.93;;
9960;SDS011;5021;51.506;11.320;2023-03-23T09:13:47;2.57;;;1.83;;
9960;SDS011;5021;51.506;11.320;2023-03-23T09:16:13;2.30;;;1.90;;
9960;SDS011;5021;51.506;11.320;2023-03-23T09:18:39;2.27;;;1.87;;
9960;SDS011;5021;51.506;11.320;2023-03-23T09:21:05;2.20;;;1.97;;
9960;SDS011;5021;51.506;11.320;2023-03-23T09:23:33;2.57;;;2.13;;
9960;SDS011;5021;51.506;11.320;2023-03-23T09:25:59;2.70;;;1.90;;
9960;SDS011;5021;51.506;11.320;2023-03-23T09:28:26;2.53;;;2.00;;
9960;SDS011;5021;51.506;11.320;2023-03-23T09:30:53;2.37;;;1.93;;
9960;SDS011;5021;51.506;11.320;2023-03-23T09:33:21;1.80;;;1.67;;
9960;SDS011;5021;51.506;11.320;2023-03-23T09:35:47;2.93;;;1.83;;
9960;SDS011;5021;51.506;11.320;2023-03-23T09:38:13;2.47;;;2.20;;
9960;SDS011;5021;51.506;11.320;2023-03-23T09:40:49;2.67;;;1.80;;
9960;SDS011;5021;51.506;11.320;2023-03-23T09:45:58;2.03;;;1.70;;
9960;SDS011;5021;51.506;11.320;2023-03-23T09:51:00;2.67;;;2.27;;
9960;SDS011;5021;51.506;11.320;2023-03-23T09:53:29;2.40;;;2.20;;
9960;SDS011;5021;51.506;11.320;2023-03-23T09:56:00;2.87;;;2.10;;
9960;SDS011;5021;51.506;11.320;2023-03-23T09:58:31;2.60;;;2.00;;
9960;SDS011;5021;51.506;11.320;2023-03-23T10:01:00;2.10;;;1.90;;
9960;SDS011;5021;51.506;11.320;2023-03-23T10:03:31;2.60;;;2.00;;
9960;SDS011;5021;51.506;11.320;2023-03-23T10:05:58;2.60;;;2.10;;
9960;SDS011;5021;51.506;11.320;2023-03-23T10:08:27;2.10;;;1.90;;
9960;SDS011;5021;51.506;11.320;2023-03-23T10:13:28;2.87;;;2.13;;
9960;SDS011;5021;51.506;11.320;2023-03-23T10:15:57;2.60;;;1.83;;
9960;SDS011;5021;51.506;11.320;2023-03-23T10:18:29;2.50;;;1.90;;
9960;SDS011;5021;51.506;11.320;2023-03-23T10:20:59;2.43;;;2.03;;
9960;SDS011;5021;51.506;11.320;2023-03-23T10:23:43;2.17;;;1.63;;
9960;SDS011;5021;51.506;11.320;2023-03-23T10:26:33;2.80;;;1.80;;
9960;SDS011;5021;51.506;11.320;2023-03-23T10:31:36;2.67;;;1.83;;
9960;SDS011;5021;51.506;11.320;2023-03-23T10:34:04;2.30;;;1.70;;
9960;SDS011;5021;51.506;11.320;2023-03-23T10:36:36;2.20;;;1.90;;
9960;SDS011;5021;51.506;11.320;2023-03-23T10:39:13;2.10;;;1.80;;
9960;SDS011;5021;51.506;11.320;2023-03-23T10:41:39;3.07;;;1.90;;
9960;SDS011;5021;51.506;11.320;2023-03-23T10:44:15;2.43;;;1.90;;
9960;SDS011;5021;51.506;11.320;2023-03-23T10:46:44;2.43;;;1.90;;
9960;SDS011;5021;51.506;11.320;2023-03-23T10:49:13;2.23;;;2.00;;
9960;SDS011;5021;51.506;11.320;2023-03-23T10:51:43;3.23;;;1.90;;
9960;SDS011;5021;51.506;11.320;2023-03-23T10:54:10;2.43;;;1.80;;
9960;SDS011;5021;51.506;11.320;2023-03-23T10:56:38;2.63;;;1.93;;
9960;SDS011;5021;51.506;11.320;2023-03-23T10:59:11;4.00;;;1.90;;
9960;SDS011;5021;51.506;11.320;2023-03-23T11:01:37;2.00;;;1.80;;
9960;SDS011;5021;51.506;11.320;2023-03-23T11:04:03;3.63;;;1.90;;
9960;SDS011;5021;51.506;11.320;2023-03-23T11:06:36;2.90;;;1.87;;
9960;SDS011;5021;51.506;11.320;2023-03-23T11:09:15;2.10;;;1.87;;
9960;SDS011;5021;51.506;11.320;2023-03-23T11:11:43;2.83;;;1.97;;
9960;SDS011;5021;51.506;11.320;2023-03-23T11:14:15;2.07;;;1.80;;
9960;SDS011;5021;51.506;11.320;2023-03-23T11:16:44;3.30;;;1.93;;
9960;SDS011;5021;51.506;11.320;2023-03-23T11:19:12;2.03;;;1.80;;
9960;SDS011;5021;51.506;11.320;2023-03-23T11:21:38;2.33;;;1.80;;
9960;SDS011;5021;51.506;11.320;2023-03-23T11:24:05;3.47;;;2.10;;
9960;SDS011;5021;51.506;11.320;2023-03-23T11:26:34;1.80;;;1.63;;
9960;SDS011;5021;51.506;11.320;2023-03-23T11:29:15;3.03;;;2.13;;
9960;SDS011;5021;51.506;11.320;2023-03-23T11:31:43;2.00;;;1.80;;
9960;SDS011;5021;51.506;11.320;2023-03-23T11:34:23;2.53;;;1.87;;
9960;SDS011;5021;51.506;11.320;2023-03-23T11:37:34;2.00;;;1.67;;
9960;SDS011;5021;51.506;11.320;2023-03-23T11:42:18;2.40;;;1.80;;
9960;SDS011;5021;51.506;11.320;2023-03-23T11:44:44;2.03;;;1.60;;
9960;SDS011;5021;51.506;11.320;2023-03-23T11:52:11;3.13;;;2.10;;
9960;SDS011;5021;51.506;11.320;2023-03-23T11:54:46;2.20;;;1.83;;
9960;SDS011;5021;51.506;11.320;2023-03-23T11:57:12;2.10;;;1.87;;
9960;SDS011;5021;51.506;11.320;2023-03-23T11:59:39;1.87;;;1.50;;
9960;SDS011;5021;51.506;11.320;2023-03-23T12:04:56;2.70;;;1.70;;
9960;SDS011;5021;51.506;11.320;2023-03-23T12:10:11;2.87;;;1.90;;
9960;SDS011;5021;51.506;11.320;2023-03-23T12:12:44;2.03;;;1.83;;
9960;SDS011;5021;51.506;11.320;2023-03-23T12:17:49;2.90;;;2.00;;
9960;SDS011;5021;51.506;11.320;2023-03-23T12:21:01;2.53;;;1.83;;
9960;SDS011;5021;51.506;11.320;2023-03-23T12:23:15;3.83;;;1.90;;
9960;SDS011;5021;51.506;11.320;2023-03-23T12:26:03;2.67;;;1.90;;
9960;SDS011;5021;51.506;11.320;2023-03-23T12:31:23;2.67;;;1.70;;
9960;SDS011;5021;51.506;11.320;2023-03-23T12:38:53;2.30;;;2.00;;
9960;SDS011;5021;51.506;11.320;2023-03-23T12:42:07;2.43;;;1.80;;
9960;SDS011;5021;51.506;11.320;2023-03-23T12:44:13;2.37;;;1.80;;
9960;SDS011;5021;51.506;11.320;2023-03-23T12:47:42;2.20;;;2.00;;
9960;SDS011;5021;51.506;11.320;2023-03-23T12:52:10;2.40;;;1.70;;
9960;SDS011;5021;51.506;11.320;2023-03-23T12:54:47;2.03;;;1.80;;
9960;SDS011;5021;51.506;11.320;2023-03-23T12:57:31;2.63;;;1.83;;
9960;SDS011;5021;51.506;11.320;2023-03-23T13:00:06;3.03;;;1.80;;
9960;SDS011;5021;51.506;11.320;2023-03-23T13:02:40;2.10;;;1.43;;
9960;SDS011;5021;51.506;11.320;2023-03-23T13:07:35;2.90;;;1.77;;
9960;SDS011;5021;51.506;11.320;2023-03-23T13:10:05;2.10;;;1.80;;
9960;SDS011;5021;51.506;11.320;2023-03-23T13:12:34;2.50;;;1.67;;
9960;SDS011;5021;51.506;11.320;2023-03-23T13:18:00;1.90;;;1.50;;
9960;SDS011;5021;51.506;11.320;2023-03-23T13:23:19;1.43;;;1.27;;
9960;SDS011;5021;51.506;11.320;2023-03-23T13:25:54;2.10;;;1.40;;
9960;SDS011;5021;51.506;11.320;2023-03-23T13:28:25;1.33;;;1.17;;
9960;SDS011;5021;51.506;11.320;2023-03-23T13:31:00;2.70;;;1.50;;
9960;SDS011;5021;51.506;11.320;2023-03-23T13:33:30;1.60;;;1.40;;
9960;SDS011;5021;51.506;11.320;2023-03-23T13:35:56;1.63;;;1.50;;
9960;SDS011;5021;51.506;11.320;2023-03-23T13:38:26;1.70;;;1.60;;
9960;SDS011;5021;51.506;11.320;2023-03-23T13:40:53;1.63;;;1.40;;
9960;SDS011;5021;51.506;11.320;2023-03-23T13:43:27;1.67;;;1.50;;
9960;SDS011;5021;51.506;11.320;2023-03-23T13:45:54;1.13;;;1.07;;
9960;SDS011;5021;51.506;11.320;2023-03-23T13:48:22;2.97;;;1.70;;
9960;SDS011;5021;51.506;11.320;2023-03-23T13:50:56;1.30;;;1.20;;
9960;SDS011;5021;51.506;11.320;2023-03-23T13:53:23;1.27;;;1.03;;
9960;SDS011;5021;51.506;11.320;2023-03-23T13:55:51;1.27;;;1.00;;
9960;SDS011;5021;51.506;11.320;2023-03-23T13:58:22;1.00;;;1.00;;
9960;SDS011;5021;51.506;11.320;2023-03-23T14:00:49;2.83;;;1.10;;
9960;SDS011;5021;51.506;11.320;2023-03-23T14:05:48;2.00;;;1.20;;
9960;SDS011;5021;51.506;11.320;2023-03-23T14:08:20;1.33;;;1.10;;
9960;SDS011;5021;51.506;11.320;2023-03-23T14:18:26;1.70;;;1.60;;
9960;SDS011;5021;51.506;11.320;2023-03-23T14:20:52;1.23;;;1.13;;
9960;SDS011;5021;51.506;11.320;2023-03-23T14:23:19;2.00;;;1.27;;
9960;SDS011;5021;51.506;11.320;2023-03-23T14:25:53;3.23;;;1.53;;
9960;SDS011;5021;51.506;11.320;2023-03-23T14:28:20;1.53;;;1.30;;
9960;SDS011;5021;51.506;11.320;2023-03-23T14:30:47;1.90;;;1.67;;
9960;SDS011;5021;51.506;11.320;2023-03-23T14:33:13;1.37;;;1.27;;
9960;SDS011;5021;51.506;11.320;2023-03-23T14:35:41;2.97;;;1.60;;
9960;SDS011;5021;51.506;11.320;2023-03-23T14:38:26;1.80;;;1.60;;
9960;SDS011;5021;51.506;11.320;2023-03-23T14:40:59;2.30;;;1.60;;
9960;SDS011;5021;51.506;11.320;2023-03-23T14:43:25;1.60;;;1.50;;
9960;SDS011;5021;51.506;11.320;2023-03-23T14:45:52;2.43;;;1.63;;
9960;SDS011;5021;51.506;11.320;2023-03-23T14:48:19;1.70;;;1.60;;
9960;SDS011;5021;51.506;11.320;2023-03-23T14:50:59;2.97;;;1.50;;
9960;SDS011;5021;51.506;11.320;2023-03-23T14:53:32;3.30;;;1.70;;
9960;SDS011;5021;51.506;11.320;2023-03-23T14:56:00;1.50;;;1.40;;
9960;SDS011;5021;51.506;11.320;2023-03-23T14:58:27;2.07;;;1.50;;
9960;SDS011;5021;51.506;11.320;2023-03-23T15:03:20;1.70;;;1.60;;
9960;SDS011;5021;51.506;11.320;2023-03-23T15:05:48;2.30;;;1.63;;
9960;SDS011;5021;51.506;11.320;2023-03-23T15:08:20;1.80;;;1.70;;
9960;SDS011;5021;51.506;11.320;2023-03-23T15:10:54;2.00;;;1.53;;
9960;SDS011;5021;51.506;11.320;2023-03-23T15:13:20;2.60;;;1.60;;
9960;SDS011;5021;51.506;11.320;2023-03-23T15:15:46;2.77;;;1.50;;
9960;SDS011;5021;51.506;11.320;2023-03-23T15:18:27;2.47;;;1.60;;
9960;SDS011;5021;51.506;11.320;2023-03-23T15:20:54;1.97;;;1.83;;
9960;SDS011;5021;51.506;11.320;2023-03-23T15:23:28;2.60;;;1.60;;
9960;SDS011;5021;51.506;11.320;2023-03-23T15:25:55;2.77;;;1.50;;
9960;SDS011;5021;51.506;11.320;2023-03-23T15:28:28;1.37;;;1.27;;
9960;SDS011;5021;51.506;11.320;2023-03-23T15:30:56;1.83;;;1.50;;
9960;SDS011;5021;51.506;11.320;2023-03-23T15:33:23;1.70;;;1.60;;
9960;SDS011;5021;51.506;11.320;2023-03-23T15:35:53;1.67;;;1.47;;
9960;SDS011;5021;51.506;11.320;2023-03-23T15:38:20;1.90;;;1.40;;
9960;SDS011;5021;51.506;11.320;2023-03-23T15:40:54;1.60;;;1.50;;
9960;SDS011;5021;51.506;11.320;2023-03-23T15:43:21;1.90;;;1.60;;
9960;SDS011;5021;51.506;11.320;2023-03-23T15:48:18;1.97;;;1.53;;
9960;SDS011;5021;51.506;11.320;2023-03-23T15:50:46;2.63;;;1.70;;
9960;SDS011;5021;51.506;11.320;2023-03-23T15:53:22;1.50;;;1.40;;
9960;SDS011;5021;51.506;11.320;2023-03-23T15:55:48;2.33;;;1.47;;
9960;SDS011;5021;51.506;11.320;2023-03-23T15:58:14;1.60;;;1.40;;
9960;SDS011;5021;51.506;11.320;2023-03-23T16:00:40;1.80;;;1.70;;
9960;SDS011;5021;51.506;11.320;2023-03-23T16:03:10;1.50;;;1.40;;
9960;SDS011;5021;51.506;11.320;2023-03-23T16:05:36;1.83;;;1.47;;
9960;SDS011;5021;51.506;11.320;2023-03-23T16:08:02;3.13;;;1.70;;
9960;SDS011;5021;51.506;11.320;2023-03-23T16:10:29;1.43;;;1.30;;
9960;SDS011;5021;51.506;11.320;2023-03-23T16:12:55;1.70;;;1.50;;
9960;SDS011;5021;51.506;11.320;2023-03-23T16:15:20;1.40;;;1.30;;
9960;SDS011;5021;51.506;11.320;2023-03-23T16:17:46;2.20;;;1.40;;
9960;SDS011;5021;51.506;11.320;2023-03-23T16:20:17;2.43;;;1.50;;